Goodyear, Arizona
Current Conditions -  °F | °C
As of 8:47 PM on Friday 19 Dec 2014 (Local Time) from KGYR Reporting Station
Few Clouds Few Clouds  
Wind Chill: 52°   Ceiling: Unl
Heat Index: 52°   Visibility: 10mi
Dew Point: 39°   Wind: 0mph
Humidity: 62%   Direction: NA
Pressure: 30.15"   Gusts: NA
Location:  33.44°N, 112.35°W
Report Text: KGYR 200347Z 00000KT 10SM FEW250 11/04 A3015 RMK LAST
Loading
Personal Weather Stations






























Interactive Weather Map New forecast layout! Learn more

10-Day Weather Forecast

Advertisements
Track Severe Weather on mobile